Time;durP1;ratioP1;P1;durP2;ratioP2;P2;SDS_P1;SDS_P2;PMS_P1;PMS_P2;Temp;Humidity;BMP_temperature;BMP_pressure;BME280_temperature;BME280_humidity;BME280_pressure;Samples;Min_cycle;Max_cycle;Signal;HPM_P1;HPM_P2
2022/02/27 00:00:46;;;;;;;18.15;9.48;;;2.90;99.90;;;;;;5075453;28;20070;-42
2022/02/27 00:03:11;;;;;;;24.30;9.77;;;2.90;99.90;;;;;;5067424;28;20032;-43
2022/02/27 00:05:37;;;;;;;22.63;10.45;;;2.80;99.90;;;;;;5072582;28;20048;-43
2022/02/27 00:08:03;;;;;;;19.20;9.40;;;2.80;99.90;;;;;;5070403;28;20128;-42
2022/02/27 00:10:29;;;;;;;21.73;10.00;;;2.80;99.90;;;;;;5068380;28;20031;-41
2022/02/27 00:12:54;;;;;;;18.73;9.10;;;2.80;99.90;;;;;;5072536;28;20025;-42
2022/02/27 00:15:19;;;;;;;21.92;8.95;;;2.80;99.90;;;;;;5066095;28;20529;-42
2022/02/27 00:17:45;;;;;;;19.58;8.88;;;2.80;99.90;;;;;;5074841;28;20036;-42
2022/02/27 00:20:11;;;;;;;15.65;8.15;;;2.80;99.90;;;;;;5066479;28;20040;-42
2022/02/27 00:22:38;;;;;;;18.10;8.23;;;2.70;99.90;;;;;;5076649;28;20037;-42
2022/02/27 00:25:04;;;;;;;18.27;7.72;;;2.70;99.90;;;;;;5065080;28;20460;-42
2022/02/27 00:27:29;;;;;;;15.18;7.78;;;2.70;99.90;;;;;;5076237;28;20020;-43
2022/02/27 00:29:55;;;;;;;15.27;7.10;;;2.70;99.90;;;;;;5066313;28;20480;-42
2022/02/27 00:32:21;;;;;;;16.40;7.65;;;2.70;99.90;;;;;;5076590;28;20036;-42
2022/02/27 00:34:46;;;;;;;13.05;7.57;;;2.70;99.90;;;;;;5065949;28;20082;-42
2022/02/27 00:37:12;;;;;;;19.90;8.80;;;2.70;99.90;;;;;;5076252;28;20067;-42
2022/02/27 00:39:38;;;;;;;19.58;8.82;;;2.70;99.90;;;;;;5068554;28;20032;-43
2022/02/27 00:42:03;;;;;;;20.45;8.25;;;2.60;99.90;;;;;;5078407;28;20109;-41
2022/02/27 00:44:29;;;;;;;18.65;7.90;;;2.60;99.90;;;;;;5071279;28;20029;-42
2022/02/27 00:46:55;;;;;;;21.08;8.07;;;2.60;99.90;;;;;;5075735;28;20031;-42
2022/02/27 00:49:20;;;;;;;14.55;7.20;;;2.60;99.90;;;;;;5074635;28;20023;-42
2022/02/27 00:51:46;;;;;;;18.15;7.70;;;2.60;99.90;;;;;;5071675;28;20028;-40
2022/02/27 00:54:11;;;;;;;18.60;7.65;;;2.60;99.90;;;;;;5076356;28;20059;-42
2022/02/27 00:56:37;;;;;;;19.35;7.63;;;2.60;99.90;;;;;;5070223;28;20016;-43
2022/02/27 00:59:06;;;;;;;15.38;7.20;;;2.60;99.90;;;;;;5077073;28;20121;-42
2022/02/27 01:01:32;;;;;;;15.40;7.93;;;2.60;99.90;;;;;;5087084;28;20063;-42
2022/02/27 01:04:00;;;;;;;17.35;8.07;;;2.60;99.90;;;;;;5077549;28;20105;-43
2022/02/27 01:06:26;;;;;;;14.98;6.55;;;2.50;99.90;;;;;;5087131;28;20370;-43
2022/02/27 01:08:53;;;;;;;13.07;6.47;;;2.50;99.90;;;;;;5077349;28;20471;-43
2022/02/27 01:11:18;;;;;;;14.98;6.88;;;2.50;99.90;;;;;;5088914;28;20357;-42
2022/02/27 01:13:44;;;;;;;12.27;6.93;;;2.60;99.90;;;;;;5075020;28;20031;-43
2022/02/27 01:16:10;;;;;;;14.82;6.28;;;2.60;99.90;;;;;;5088624;28;20436;-42
2022/02/27 01:18:35;;;;;;;17.38;7.00;;;2.50;99.90;;;;;;5075959;28;20590;-43
2022/02/27 01:21:01;;;;;;;15.13;7.65;;;2.50;99.90;;;;;;5086792;28;20032;-41
2022/02/27 01:23:27;;;;;;;14.65;6.50;;;2.50;99.90;;;;;;5078233;28;20058;-40
2022/02/27 01:25:53;;;;;;;15.25;6.78;;;2.50;99.90;;;;;;5085183;28;20039;-42
2022/02/27 01:28:18;;;;;;;14.07;6.20;;;2.50;99.90;;;;;;5079606;28;20024;-42
2022/02/27 01:30:44;;;;;;;20.50;7.40;;;2.50;99.90;;;;;;5083097;28;20028;-43
2022/02/27 01:33:10;;;;;;;18.90;7.78;;;2.50;99.90;;;;;;5084039;28;20555;-43
2022/02/27 01:35:35;;;;;;;14.48;6.35;;;2.50;99.90;;;;;;5079496;28;20663;-43
2022/02/27 01:38:01;;;;;;;15.90;7.13;;;2.50;99.90;;;;;;5086649;28;20028;-42
2022/02/27 01:40:26;;;;;;;20.17;7.65;;;2.50;99.90;;;;;;5076046;28;20042;-44
2022/02/27 01:42:52;;;;;;;21.83;8.10;;;2.50;99.90;;;;;;5086622;28;20506;-42
2022/02/27 01:45:18;;;;;;;15.13;6.85;;;2.50;99.90;;;;;;5075938;28;20874;-42
2022/02/27 01:47:46;;;;;;;19.25;7.28;;;2.50;99.90;;;;;;5087515;28;20192;-42
2022/02/27 01:50:12;;;;;;;12.40;5.90;;;2.50;99.90;;;;;;5074749;28;20020;-42
2022/02/27 01:52:38;;;;;;;12.35;5.85;;;2.50;99.90;;;;;;5088035;28;20349;-43
2022/02/27 01:55:05;;;;;;;13.77;5.82;;;2.40;99.90;;;;;;5074321;28;20074;-43
2022/02/27 01:57:31;;;;;;;10.93;5.47;;;2.40;99.90;;;;;;5087539;28;20040;-41
2022/02/27 01:59:57;;;;;;;11.20;5.75;;;2.40;99.90;;;;;;5076010;28;20028;-42
2022/02/27 02:02:23;;;;;;;12.73;6.30;;;2.40;99.90;;;;;;5085968;28;20016;-43
2022/02/27 02:04:48;;;;;;;18.38;6.53;;;2.40;99.90;;;;;;5079141;28;20494;-42
2022/02/27 02:07:14;;;;;;;17.75;7.25;;;2.40;99.90;;;;;;5084322;28;20081;-43
2022/02/27 02:09:40;;;;;;;22.92;7.53;;;2.40;99.90;;;;;;5080323;28;20021;-42
2022/02/27 02:12:07;;;;;;;13.50;6.40;;;2.40;99.90;;;;;;5081828;28;20020;-42
2022/02/27 02:14:36;;;;;;;19.73;8.48;;;2.40;99.90;;;;;;5083270;28;20185;-41
2022/02/27 02:17:02;;;;;;;17.83;7.30;;;2.40;99.90;;;;;;5078884;28;20028;-42
2022/02/27 02:19:28;;;;;;;15.93;7.80;;;2.40;99.90;;;;;;5085134;28;20028;-43
2022/02/27 02:21:57;;;;;;;21.38;8.23;;;2.40;99.90;;;;;;5077092;28;20039;-43
2022/02/27 02:24:23;;;;;;;16.38;7.43;;;2.40;99.90;;;;;;5084879;28;20021;-45
2022/02/27 02:26:49;;;;;;;18.75;7.30;;;2.40;99.90;;;;;;5076409;28;20035;-44
2022/02/27 02:29:18;;;;;;;22.85;8.30;;;2.40;99.90;;;;;;5084902;28;20032;-43
2022/02/27 02:31:45;;;;;;;17.83;7.90;;;2.40;99.90;;;;;;5074608;28;20028;-44
2022/02/27 02:34:13;;;;;;;17.67;7.32;;;2.40;99.90;;;;;;5087095;28;20060;-43
2022/02/27 02:36:40;;;;;;;19.90;8.20;;;2.40;99.90;;;;;;5073432;28;20482;-42
2022/02/27 02:39:08;;;;;;;12.95;6.97;;;2.40;99.90;;;;;;5087484;28;20023;-42
2022/02/27 02:41:34;;;;;;;16.27;6.60;;;2.40;99.90;;;;;;5073134;28;20399;-43
2022/02/27 02:44:00;;;;;;;14.95;6.97;;;2.40;99.90;;;;;;5086712;28;20223;-43
2022/02/27 02:46:25;;;;;;;15.68;7.45;;;2.40;99.90;;;;;;5075606;28;20476;-43
2022/02/27 02:48:51;;;;;;;17.33;6.78;;;2.40;99.90;;;;;;5085844;28;20462;-42
2022/02/27 02:51:17;;;;;;;14.68;6.82;;;2.40;99.90;;;;;;5076810;28;20036;-43
2022/02/27 02:53:43;;;;;;;15.07;6.07;;;2.40;99.90;;;;;;5082984;28;20059;-43
2022/02/27 02:56:10;;;;;;;19.80;7.68;;;2.40;99.90;;;;;;5079963;28;20025;-43
2022/02/27 02:58:40;;;;;;;16.58;7.07;;;2.40;99.90;;;;;;5079661;28;20028;-43
2022/02/27 03:01:06;;;;;;;16.45;7.03;;;2.40;99.90;;;;;;5082657;28;20127;-42
2022/02/27 03:03:32;;;;;;;18.33;7.30;;;2.40;99.90;;;;;;5077993;28;20028;-43
2022/02/27 03:05:58;;;;;;;16.38;6.80;;;2.40;99.90;;;;;;5084749;28;20030;-43
2022/02/27 03:08:23;;;;;;;14.70;7.05;;;2.40;99.90;;;;;;5075959;28;20031;-44
2022/02/27 03:10:48;;;;;;;20.98;7.55;;;2.40;99.90;;;;;;5084903;28;20562;-43
2022/02/27 03:13:14;;;;;;;15.63;6.25;;;2.40;99.90;;;;;;5074128;28;20101;-42
2022/02/27 03:15:42;;;;;;;14.55;6.05;;;2.40;99.90;;;;;;5086746;28;20403;-41
2022/02/27 03:18:08;;;;;;;13.75;6.45;;;2.40;99.90;;;;;;5073890;28;20110;-43
2022/02/27 03:20:34;;;;;;;19.33;7.25;;;2.40;99.90;;;;;;5085770;28;20173;-43
2022/02/27 03:22:59;;;;;;;17.92;7.10;;;2.40;99.90;;;;;;5073729;28;20028;-42
2022/02/27 03:25:26;;;;;;;14.80;6.50;;;2.40;99.90;;;;;;5086412;28;20101;-42
2022/02/27 03:27:52;;;;;;;12.13;6.20;;;2.40;99.90;;;;;;5074068;28;20029;-42
2022/02/27 03:30:18;;;;;;;11.88;5.53;;;2.40;99.90;;;;;;5084517;28;20593;-41
2022/02/27 03:32:46;;;;;;;15.57;7.05;;;2.40;99.90;;;;;;5076723;28;20028;-43
2022/02/27 03:35:16;;;;;;;14.48;6.15;;;2.40;99.90;;;;;;5082173;28;20027;-42
2022/02/27 03:37:46;;;;;;;15.57;6.50;;;2.30;99.90;;;;;;5078687;28;20047;-43
2022/02/27 03:40:12;;;;;;;20.50;7.03;;;2.30;99.90;;;;;;5080123;28;20020;-43
2022/02/27 03:42:37;;;;;;;11.63;5.78;;;2.30;99.90;;;;;;5079530;28;20078;-43
2022/02/27 03:45:05;;;;;;;12.93;6.20;;;2.30;99.90;;;;;;5078877;28;20028;-42
2022/02/27 03:47:31;;;;;;;15.95;6.65;;;2.30;99.90;;;;;;5081599;28;20353;-43
2022/02/27 03:49:56;;;;;;;12.55;6.35;;;2.30;99.90;;;;;;5077786;28;20042;-42
2022/02/27 03:52:22;;;;;;;15.70;6.20;;;2.30;99.90;;;;;;5083706;28;20114;-42
2022/02/27 03:54:47;;;;;;;13.43;5.78;;;2.30;99.90;;;;;;5073570;28;20044;-42
2022/02/27 03:57:13;;;;;;;15.00;5.85;;;2.30;99.90;;;;;;5084129;28;20432;-41
2022/02/27 03:59:39;;;;;;;21.35;8.05;;;2.30;99.90;;;;;;5074532;28;20028;-43
2022/02/27 04:02:05;;;;;;;15.45;6.32;;;2.20;99.90;;;;;;5085265;28;20111;-43
2022/02/27 04:04:31;;;;;;;17.27;6.72;;;2.30;99.90;;;;;;5071870;28;20032;-44
2022/02/27 04:06:57;;;;;;;12.93;5.93;;;2.20;99.90;;;;;;5085971;28;20051;-42
2022/02/27 04:09:22;;;;;;;16.20;7.00;;;2.20;99.90;;;;;;5071734;28;20383;-43
2022/02/27 04:11:48;;;;;;;23.73;7.60;;;2.20;99.90;;;;;;5085940;28;20032;-42
2022/02/27 04:14:13;;;;;;;16.40;6.63;;;2.20;99.90;;;;;;5075202;28;20039;-42
2022/02/27 04:16:39;;;;;;;16.67;6.57;;;2.20;99.90;;;;;;5082437;28;20041;-43
2022/02/27 04:19:04;;;;;;;17.27;7.03;;;2.20;99.90;;;;;;5078424;28;20039;-42
2022/02/27 04:21:30;;;;;;;11.65;5.95;;;2.20;99.90;;;;;;5079349;28;20068;-42
2022/02/27 04:23:56;;;;;;;13.25;5.85;;;2.20;99.90;;;;;;5080176;28;20028;-43
2022/02/27 04:26:21;;;;;;;16.55;5.95;;;2.20;99.90;;;;;;5078054;28;20028;-43
2022/02/27 04:28:47;;;;;;;15.80;6.50;;;2.20;99.90;;;;;;5084168;28;20021;-43
2022/02/27 04:31:13;;;;;;;16.05;6.55;;;2.20;99.90;;;;;;5074146;28;20028;-43
2022/02/27 04:33:38;;;;;;;15.88;6.20;;;2.10;99.90;;;;;;5084408;28;20024;-43
2022/02/27 04:36:04;;;;;;;13.85;5.82;;;2.10;99.90;;;;;;5074498;28;20032;-43
2022/02/27 04:38:29;;;;;;;17.02;6.65;;;2.10;99.90;;;;;;5084027;28;20420;-41
2022/02/27 04:40:55;;;;;;;14.25;6.35;;;2.10;99.90;;;;;;5073579;28;20680;-43
2022/02/27 04:43:21;;;;;;;16.23;5.75;;;2.10;99.90;;;;;;5083882;28;20032;-43
2022/02/27 04:45:46;;;;;;;13.02;6.30;;;2.10;99.90;;;;;;5072112;28;20032;-43
2022/02/27 04:48:12;;;;;;;16.15;5.68;;;2.10;99.90;;;;;;5084761;28;20032;-43
2022/02/27 04:50:37;;;;;;;12.88;5.38;;;2.10;99.90;;;;;;5077726;28;20055;-43
2022/02/27 04:53:03;;;;;;;14.77;5.90;;;2.10;99.90;;;;;;5065599;28;20069;-42
2022/02/27 04:55:28;;;;;;;14.57;6.25;;;2.00;99.90;;;;;;5072628;28;20498;-43
2022/02/27 04:57:54;;;;;;;15.38;6.28;;;2.10;99.90;;;;;;5068325;28;20039;-43
2022/02/27 05:00:20;;;;;;;17.70;6.10;;;2.10;99.90;;;;;;5070435;28;20032;-42
2022/02/27 05:02:45;;;;;;;17.92;6.40;;;2.00;99.90;;;;;;5071454;28;20762;-42
2022/02/27 05:05:11;;;;;;;13.95;5.65;;;2.00;99.90;;;;;;5068305;28;20024;-43
2022/02/27 05:07:36;;;;;;;16.05;6.20;;;2.00;99.90;;;;;;5073836;28;20611;-43
2022/02/27 05:10:04;;;;;;;19.55;7.45;;;2.00;99.90;;;;;;5066505;28;20835;-43
2022/02/27 05:12:30;;;;;;;13.13;6.60;;;2.00;99.90;;;;;;5074950;28;20052;-43
2022/02/27 05:14:56;;;;;;;16.13;6.85;;;2.00;99.90;;;;;;5066022;28;20056;-42
2022/02/27 05:17:21;;;;;;;15.35;5.78;;;2.00;99.90;;;;;;5075765;28;20056;-43
2022/02/27 05:19:47;;;;;;;12.63;6.22;;;1.90;99.90;;;;;;5064307;28;20040;-42
2022/02/27 05:22:12;;;;;;;18.27;6.65;;;1.90;99.90;;;;;;5077260;28;20074;-43
2022/02/27 05:24:38;;;;;;;15.18;6.13;;;1.90;99.90;;;;;;5065056;28;20613;-43
2022/02/27 05:27:03;;;;;;;12.30;5.97;;;1.90;99.90;;;;;;5080458;28;20016;-46
2022/02/27 05:29:29;;;;;;;12.98;6.32;;;1.90;99.90;;;;;;5067425;28;20040;-42
2022/02/27 05:31:54;;;;;;;16.55;6.65;;;1.90;99.90;;;;;;5078637;28;20016;-43
2022/02/27 05:34:22;;;;;;;16.02;6.70;;;1.90;99.90;;;;;;5068994;28;20741;-43
2022/02/27 05:36:47;;;;;;;13.35;6.13;;;1.90;99.90;;;;;;5076796;28;20028;-42
2022/02/27 05:39:13;;;;;;;13.65;6.22;;;1.90;99.90;;;;;;5072600;28;20035;-43
2022/02/27 05:41:42;;;;;;;13.85;6.72;;;1.90;99.90;;;;;;5072748;28;20471;-43
2022/02/27 05:44:08;;;;;;;10.85;5.57;;;1.80;99.90;;;;;;5074355;28;20522;-44
2022/02/27 05:46:33;;;;;;;15.65;6.22;;;1.90;99.90;;;;;;5070779;28;20120;-43
2022/02/27 05:48:59;;;;;;;13.70;6.32;;;1.80;99.90;;;;;;5077202;28;20025;-44
2022/02/27 05:51:24;;;;;;;18.70;6.65;;;1.80;99.90;;;;;;5069350;28;20052;-41
2022/02/27 05:53:50;;;;;;;13.38;6.60;;;1.80;99.90;;;;;;5078548;28;20135;-43
2022/02/27 05:56:15;;;;;;;13.48;6.55;;;1.80;99.90;;;;;;5068029;28;20446;-43
2022/02/27 05:58:41;;;;;;;20.33;7.30;;;1.80;99.90;;;;;;5078386;28;20574;-42
2022/02/27 06:01:06;;;;;;;17.27;7.28;;;1.80;99.90;;;;;;5066562;28;20119;-44
2022/02/27 06:03:32;;;;;;;15.02;7.00;;;1.70;99.90;;;;;;5079214;28;20048;-42
2022/02/27 06:05:57;;;;;;;14.18;6.20;;;1.70;99.90;;;;;;5067857;28;20522;-43
2022/02/27 06:08:23;;;;;;;13.00;6.38;;;1.70;99.90;;;;;;5078468;28;20016;-44
2022/02/27 06:10:48;;;;;;;15.93;7.00;;;1.70;99.90;;;;;;5067796;28;20074;-43
2022/02/27 06:13:14;;;;;;;13.35;6.55;;;1.70;99.90;;;;;;5077684;28;20458;-42
2022/02/27 06:15:39;;;;;;;14.98;6.80;;;1.70;99.90;;;;;;5069607;28;20052;-44
2022/02/27 06:18:05;;;;;;;15.77;6.63;;;1.70;99.90;;;;;;5074634;28;20027;-43
2022/02/27 06:20:31;;;;;;;14.98;6.45;;;1.70;99.90;;;;;;5071561;28;20042;-41
2022/02/27 06:22:56;;;;;;;11.43;5.88;;;1.70;99.90;;;;;;5071848;28;20012;-43
2022/02/27 06:25:22;;;;;;;13.52;6.07;;;1.60;99.90;;;;;;5074864;28;20026;-43
2022/02/27 06:27:48;;;;;;;12.82;6.35;;;1.60;99.90;;;;;;5069432;28;20475;-44
2022/02/27 06:30:19;;;;;;;13.23;6.57;;;1.70;99.90;;;;;;5076470;28;20028;-43
2022/02/27 06:32:49;;;;;;;15.35;6.60;;;1.60;99.90;;;;;;5068774;28;20023;-44
2022/02/27 06:35:16;;;;;;;14.45;6.60;;;1.60;99.90;;;;;;5077909;28;20020;-41
2022/02/27 06:37:42;;;;;;;14.23;6.25;;;1.60;99.90;;;;;;5067696;28;20020;-43
2022/02/27 06:40:09;;;;;;;15.20;6.55;;;1.60;99.90;;;;;;5077464;28;20028;-43
2022/02/27 06:42:35;;;;;;;13.40;5.72;;;1.60;99.90;;;;;;5066763;28;20032;-42
2022/02/27 06:45:00;;;;;;;11.88;5.80;;;1.60;99.90;;;;;;5078570;28;20063;-43
2022/02/27 06:47:26;;;;;;;12.15;6.15;;;1.60;99.90;;;;;;5066550;28;20109;-42
2022/02/27 06:49:51;;;;;;;15.90;6.65;;;1.60;99.90;;;;;;5079187;28;20151;-43
2022/02/27 06:52:17;;;;;;;14.10;6.78;;;1.60;99.90;;;;;;5066568;28;20128;-44
2022/02/27 06:54:43;;;;;;;17.60;7.15;;;1.60;99.90;;;;;;5077248;28;20051;-41
2022/02/27 06:57:09;;;;;;;14.77;7.18;;;1.60;99.90;;;;;;5067178;28;20491;-39
2022/02/27 06:59:34;;;;;;;16.25;7.28;;;1.60;99.90;;;;;;5074889;28;20336;-42
2022/02/27 07:02:00;;;;;;;15.68;6.70;;;1.60;99.90;;;;;;5070627;28;20044;-43
2022/02/27 07:04:25;;;;;;;15.38;6.95;;;1.60;99.90;;;;;;5070766;28;20027;-41
2022/02/27 07:06:51;;;;;;;14.88;7.47;;;1.60;99.90;;;;;;5073226;28;20029;-43
2022/02/27 07:09:17;;;;;;;16.92;7.38;;;1.60;99.90;;;;;;5068356;28;20024;-43
2022/02/27 07:11:44;;;;;;;15.95;7.05;;;1.60;99.90;;;;;;5074808;28;20093;-43
2022/02/27 07:14:10;;;;;;;17.40;6.70;;;1.70;99.90;;;;;;5067087;28;20536;-44
2022/02/27 07:16:36;;;;;;;13.32;5.78;;;1.70;99.90;;;;;;5077315;28;20055;-43
2022/02/27 07:19:02;;;;;;;15.52;6.32;;;1.70;99.90;;;;;;5066715;28;20028;-43
2022/02/27 07:21:27;;;;;;;17.13;6.10;;;1.70;99.90;;;;;;5076472;28;20060;-42
2022/02/27 07:23:53;;;;;;;14.07;6.25;;;1.70;99.90;;;;;;5066569;28;20063;-41
2022/02/27 07:26:18;;;;;;;7.22;4.32;;;1.80;99.90;;;;;;5077528;28;20052;-44
2022/02/27 07:28:44;;;;;;;14.35;5.50;;;1.80;99.90;;;;;;5066155;28;20103;-42
2022/02/27 07:31:10;;;;;;;11.73;5.25;;;1.80;99.90;;;;;;5078491;28;20020;-42
2022/02/27 07:33:35;;;;;;;12.30;6.25;;;1.80;99.90;;;;;;5064871;28;20765;-42
2022/02/27 07:36:01;;;;;;;11.48;5.65;;;1.90;99.90;;;;;;5076585;28;20407;-43
2022/02/27 07:38:26;;;;;;;12.48;5.10;;;1.90;99.90;;;;;;5068134;28;20025;-42
2022/02/27 07:40:52;;;;;;;11.48;5.63;;;1.90;99.90;;;;;;5072656;28;20476;-43
2022/02/27 07:43:19;;;;;;;11.02;5.25;;;2.00;99.90;;;;;;5070697;28;20032;-43
2022/02/27 07:45:46;;;;;;;11.32;4.85;;;2.00;99.90;;;;;;5070604;28;20490;-42
2022/02/27 07:48:13;;;;;;;7.38;4.68;;;2.00;99.90;;;;;;5072059;28;20028;-43
2022/02/27 07:50:39;;;;;;;13.65;5.78;;;2.10;99.90;;;;;;5068776;28;20060;-45
2022/02/27 07:53:04;;;;;;;12.73;5.65;;;2.10;99.90;;;;;;5075632;28;20059;-43
2022/02/27 07:55:30;;;;;;;11.35;5.13;;;2.20;99.90;;;;;;5066372;28;20123;-43
2022/02/27 07:57:55;;;;;;;14.48;5.72;;;2.30;99.90;;;;;;5076776;28;20075;-43
2022/02/27 08:00:21;;;;;;;11.65;5.60;;;2.30;99.90;;;;;;5065743;28;20036;-42
2022/02/27 08:02:46;;;;;;;9.65;5.40;;;2.40;99.90;;;;;;5077365;28;20028;-42
2022/02/27 08:05:12;;;;;;;17.73;6.97;;;2.40;99.90;;;;;;5065380;28;20078;-43
2022/02/27 08:07:37;;;;;;;16.02;6.85;;;2.50;99.90;;;;;;5077361;28;20093;-45
2022/02/27 08:10:04;;;;;;;11.45;5.97;;;2.50;99.90;;;;;;5065861;28;20463;-43
2022/02/27 08:12:31;;;;;;;10.13;6.15;;;2.60;99.90;;;;;;5077166;28;20034;-43
2022/02/27 08:14:57;;;;;;;13.98;6.22;;;2.60;99.90;;;;;;5064732;28;20077;-44
2022/02/27 08:17:22;;;;;;;13.60;5.10;;;2.70;99.90;;;;;;5074867;28;20040;-41
2022/02/27 08:19:48;;;;;;;11.85;5.82;;;2.80;99.90;;;;;;5068002;28;20039;-42
2022/02/27 08:22:14;;;;;;;11.90;5.57;;;2.90;99.90;;;;;;5071099;28;20024;-41
2022/02/27 08:24:40;;;;;;;13.07;6.55;;;2.90;99.90;;;;;;5069833;28;20024;-44
2022/02/27 08:27:06;;;;;;;13.10;6.03;;;3.00;99.90;;;;;;5069371;28;20020;-43
2022/02/27 08:29:32;;;;;;;11.65;6.00;;;3.10;99.90;;;;;;5071628;28;20020;-42
2022/02/27 08:31:57;;;;;;;13.65;5.97;;;3.10;99.90;;;;;;5067994;28;20038;-40
2022/02/27 08:34:30;;;;;;;11.50;6.43;;;3.10;99.90;;;;;;5074826;28;20046;-44
2022/02/27 08:36:56;;;;;;;11.02;5.68;;;3.20;99.90;;;;;;5065436;28;20039;-43
2022/02/27 08:39:21;;;;;;;10.68;5.72;;;3.20;99.90;;;;;;5075493;28;20390;-41
2022/02/27 08:41:47;;;;;;;12.32;5.85;;;3.30;99.90;;;;;;5065921;28;20040;-42
2022/02/27 08:44:12;;;;;;;12.27;5.97;;;3.30;99.90;;;;;;5075609;28;20020;-42
2022/02/27 08:46:39;;;;;;;9.60;5.57;;;3.40;99.90;;;;;;5064771;28;20476;-43
2022/02/27 08:49:06;;;;;;;10.15;4.93;;;3.40;99.90;;;;;;5075519;28;20040;-42
2022/02/27 08:51:32;;;;;;;11.82;5.68;;;3.40;99.90;;;;;;5064503;28;20195;-42
2022/02/27 08:54:02;;;;;;;8.77;5.50;;;3.50;99.90;;;;;;5077473;28;20500;-42
2022/02/27 08:56:28;;;;;;;8.57;5.57;;;3.50;99.90;;;;;;5064295;28;20420;-44
2022/02/27 08:58:54;;;;;;;11.20;5.72;;;3.60;99.90;;;;;;5076969;28;20020;-42
2022/02/27 09:01:19;;;;;;;13.02;5.95;;;3.60;99.90;;;;;;5069436;28;20044;-44
2022/02/27 09:03:45;;;;;;;13.27;6.30;;;3.70;99.90;;;;;;5076531;28;20016;-43
2022/02/27 09:06:10;;;;;;;11.77;7.43;;;3.80;99.90;;;;;;5072813;28;20170;-42
2022/02/27 09:08:41;;;;;;;15.88;6.97;;;3.80;99.90;;;;;;5074523;28;20031;-43
2022/02/27 09:11:07;;;;;;;9.63;5.53;;;3.90;99.90;;;;;;5074138;28;20422;-43
2022/02/27 09:13:33;;;;;;;13.80;6.28;;;4.00;99.90;;;;;;5073281;28;20131;-43
2022/02/27 09:15:58;;;;;;;14.15;6.63;;;4.00;99.90;;;;;;5077067;28;20049;-42
2022/02/27 09:18:24;;;;;;;14.43;6.68;;;4.10;99.90;;;;;;5068901;28;20027;-42
2022/02/27 09:20:49;;;;;;;16.15;7.15;;;4.10;99.90;;;;;;5080156;28;20077;-41
2022/02/27 09:23:15;;;;;;;12.50;6.45;;;4.20;99.90;;;;;;5069059;28;20476;-43
2022/02/27 09:25:41;;;;;;;9.82;5.53;;;4.20;99.90;;;;;;5079209;28;20036;-45
2022/02/27 09:28:06;;;;;;;11.52;6.28;;;4.30;99.90;;;;;;5068715;28;20470;-42
2022/02/27 09:30:32;;;;;;;9.10;5.50;;;4.40;99.90;;;;;;5080371;28;20039;-44
2022/02/27 09:32:58;;;;;;;13.20;6.72;;;4.50;99.90;;;;;;5067970;28;20480;-43
2022/02/27 09:35:28;;;;;;;9.25;5.25;;;4.60;99.90;;;;;;5080107;28;20595;-43
2022/02/27 09:37:58;;;;;;;10.27;5.45;;;4.70;99.90;;;;;;5068482;28;20073;-41
2022/02/27 09:40:24;;;;;;;8.45;5.35;;;4.80;99.90;;;;;;5079051;28;20059;-43
2022/02/27 09:42:52;;;;;;;8.43;4.63;;;4.80;99.90;;;;;;5068235;28;20028;-43
2022/02/27 09:45:18;;;;;;;8.95;4.78;;;4.90;99.90;;;;;;5077111;28;20024;-43
2022/02/27 09:47:44;;;;;;;6.75;4.07;;;5.00;99.90;;;;;;5069666;28;20110;-44
2022/02/27 09:50:10;;;;;;;13.07;4.63;;;5.00;99.90;;;;;;5073856;28;20025;-45
2022/02/27 09:52:35;;;;;;;9.02;4.47;;;5.20;99.90;;;;;;5082409;28;20106;-43
2022/02/27 09:55:00;;;;;;;8.35;4.18;;;5.20;99.90;;;;;;5082398;28;20127;-43
2022/02/27 09:57:26;;;;;;;7.85;4.22;;;5.30;99.90;;;;;;5079681;28;20031;-43
2022/02/27 09:59:51;;;;;;;6.07;3.75;;;5.40;99.90;;;;;;5085122;28;20525;-43
2022/02/27 10:02:17;;;;;;;6.30;3.97;;;5.40;99.90;;;;;;5077044;28;20020;-42
2022/02/27 10:04:48;;;;;;;12.10;4.22;;;5.50;99.90;;;;;;5086930;28;20538;-43
2022/02/27 10:07:18;;;;;;;10.50;4.82;;;5.50;99.90;;;;;;5075789;28;20463;-43
2022/02/27 10:09:46;;;;;;;10.60;4.85;;;5.50;99.90;;;;;;5086564;28;20036;-43
2022/02/27 10:12:13;;;;;;;8.13;4.72;;;5.60;99.90;;;;;;5075457;28;20098;-42
2022/02/27 10:14:38;;;;;;;9.52;4.15;;;5.60;99.90;;;;;;5087104;28;20043;-42
2022/02/27 10:17:05;;;;;;;9.15;4.93;;;5.70;99.90;;;;;;5075058;28;20024;-44
2022/02/27 10:19:34;;;;;;;12.00;5.25;;;5.80;99.90;;;;;;5087501;28;20035;-42
2022/02/27 10:21:59;;;;;;;9.45;4.50;;;5.80;99.90;;;;;;5074253;28;20044;-43
2022/02/27 10:24:25;;;;;;;5.93;4.13;;;5.80;99.90;;;;;;5086868;28;20023;-41
2022/02/27 10:26:52;;;;;;;7.18;4.15;;;5.90;99.90;;;;;;5075617;28;20039;-43
2022/02/27 10:29:19;;;;;;;6.32;4.00;;;5.90;99.90;;;;;;5085815;28;20050;-43
2022/02/27 10:31:47;;;;;;;8.82;4.50;;;5.90;99.90;;;;;;5078533;28;20125;-43
2022/02/27 10:34:20;;;;;;;7.15;3.88;;;5.90;99.90;;;;;;5084352;28;20626;-41
2022/02/27 10:37:07;;;;;;;6.85;4.53;;;6.00;99.90;;;;;;5079017;28;20038;-46
2022/02/27 10:39:43;;;;;;;6.75;4.30;;;6.00;99.90;;;;;;5085679;28;20036;-43
2022/02/27 10:42:27;;;;;;;9.77;4.82;;;6.00;99.90;;;;;;5076725;28;20806;-43
2022/02/27 10:45:04;;;;;;;7.38;4.05;;;6.10;99.90;;;;;;5087424;28;20162;-43
2022/02/27 10:47:37;;;;;;;9.95;4.40;;;6.10;99.90;;;;;;5075755;28;20078;-42
2022/02/27 10:50:10;;;;;;;9.68;4.53;;;6.20;99.90;;;;;;5085871;28;20074;-44
2022/02/27 10:52:37;;;;;;;7.18;4.43;;;6.20;99.90;;;;;;5075646;28;20454;-41
2022/02/27 10:55:06;;;;;;;13.32;5.72;;;6.20;99.90;;;;;;5084544;28;20195;-42
2022/02/27 10:57:37;;;;;;;10.55;4.70;;;6.30;99.90;;;;;;5076840;28;20016;-41
2022/02/27 11:00:20;;;;;;;11.60;4.97;;;6.30;99.90;;;;;;5083319;28;20155;-41
2022/02/27 11:02:52;;;;;;;7.05;4.43;;;6.30;99.90;;;;;;5077162;28;20810;-42
2022/02/27 11:05:20;;;;;;;10.10;4.78;;;6.40;99.90;;;;;;5083354;28;20376;-41
2022/02/27 11:07:57;;;;;;;6.35;3.90;;;6.40;99.90;;;;;;5078842;28;20527;-43
2022/02/27 11:10:27;;;;;;;10.80;5.07;;;6.40;99.90;;;;;;5083006;28;20024;-43
2022/02/27 11:12:54;;;;;;;8.07;4.63;;;6.50;99.90;;;;;;5079491;28;20025;-42
2022/02/27 11:15:24;;;;;;;7.05;4.40;;;6.50;99.90;;;;;;5080320;28;20016;-43
2022/02/27 11:17:50;;;;;;;8.57;4.32;;;6.60;99.90;;;;;;5080716;28;20036;-43
2022/02/27 11:20:19;;;;;;;7.82;4.20;;;6.60;99.90;;;;;;5078774;28;20032;-42
2022/02/27 11:22:45;;;;;;;13.23;4.75;;;6.60;99.90;;;;;;5082775;28;20028;-42
2022/02/27 11:25:11;;;;;;;9.65;4.55;;;6.60;99.90;;;;;;5075825;28;20476;-43
2022/02/27 11:27:49;;;;;;;7.10;4.20;;;6.70;99.90;;;;;;5085215;28;20451;-45
2022/02/27 11:30:24;;;;;;;7.93;4.05;;;6.80;99.90;;;;;;5075581;28;20027;-42
2022/02/27 11:32:50;;;;;;;8.15;4.07;;;6.80;99.90;;;;;;5084360;28;20036;-44
2022/02/27 11:35:38;;;;;;;6.82;3.90;;;6.80;99.90;;;;;;5074728;28;20039;-43
2022/02/27 11:38:13;;;;;;;7.68;5.03;;;6.90;99.90;;;;;;5084949;28;20030;-44
2022/02/27 11:40:56;;;;;;;7.35;4.10;;;6.90;99.90;;;;;;5076352;28;20043;-42
2022/02/27 11:43:42;;;;;;;8.15;4.97;;;6.90;99.90;;;;;;5083829;28;20028;-40
2022/02/27 11:46:29;;;;;;;13.25;6.00;;;7.00;99.90;;;;;;5078421;28;20052;-44
2022/02/27 11:48:59;;;;;;;11.77;5.60;;;7.00;99.90;;;;;;5079278;28;20055;-42
2022/02/27 11:51:36;;;;;;;8.68;4.65;;;7.10;99.90;;;;;;5079155;28;20549;-43
2022/02/27 11:54:07;;;;;;;9.68;4.85;;;7.10;99.90;;;;;;5080588;28;20123;-43
2022/02/27 11:56:34;;;;;;;9.35;5.05;;;7.10;99.90;;;;;;5079036;28;20031;-41
2022/02/27 11:59:00;;;;;;;9.07;5.20;;;7.20;99.90;;;;;;5082383;28;20495;-42
2022/02/27 12:01:48;;;;;;;8.95;4.68;;;7.20;99.90;;;;;;5075064;28;20105;-43
2022/02/27 12:04:19;;;;;;;9.32;5.25;;;7.20;99.90;;;;;;5081141;28;20065;-42
2022/02/27 12:07:08;;;;;;;9.77;4.55;;;7.30;99.90;;;;;;5076887;28;20032;-43
2022/02/27 12:09:49;;;;;;;9.32;4.47;;;7.30;99.90;;;;;;5079686;28;20467;-42
2022/02/27 12:12:53;;;;;;;7.80;4.60;;;7.40;99.90;;;;;;5079603;28;20032;-42
2022/02/27 12:15:20;;;;;;;6.97;4.43;;;7.40;99.90;;;;;;5074136;28;20024;-42
2022/02/27 12:18:15;;;;;;;7.13;3.88;;;7.50;99.90;;;;;;5083662;28;20399;-42
2022/02/27 12:20:43;;;;;;;5.05;3.55;;;7.50;99.90;;;;;;5065420;28;20106;-43
2022/02/27 12:23:31;;;;;;;8.20;4.18;;;7.60;99.90;;;;;;5085050;28;20055;-42
2022/02/27 12:25:59;;;;;;;7.53;3.72;;;7.70;99.90;;;;;;5072734;28;20032;-43
2022/02/27 12:28:47;;;;;;;5.70;3.88;;;7.70;99.90;;;;;;5084349;28;20550;-43
2022/02/27 12:31:34;;;;;;;6.28;3.72;;;7.80;99.90;;;;;;5072664;28;20111;-43
2022/02/27 12:34:12;;;;;;;8.77;3.90;;;7.80;99.90;;;;;;5086228;28;20424;-43
2022/02/27 12:36:37;;;;;;;10.48;3.90;;;7.90;99.90;;;;;;5076177;28;20028;-43
2022/02/27 12:39:06;;;;;;;7.65;4.75;;;7.90;99.90;;;;;;5090044;28;20031;-41
2022/02/27 12:41:34;;;;;;;9.15;3.92;;;8.00;99.90;;;;;;5075527;28;20041;-42
2022/02/27 12:44:01;;;;;;;7.85;4.10;;;8.00;99.90;;;;;;5089904;28;20103;-44
2022/02/27 12:46:26;;;;;;;9.80;5.05;;;8.00;99.90;;;;;;5077871;28;20082;-43
2022/02/27 12:51:38;;;;;;;6.25;3.58;;;8.10;99.90;;;;;;5077764;28;20812;-43